createdAt,value
2018-11-28T00:01:42.006Z,92.22
2018-11-28T00:04:45.973Z,91.92
2018-11-28T00:07:50.130Z,91.65
2018-11-28T00:10:54.096Z,91.68
2018-11-28T00:13:58.054Z,91.58
2018-11-28T00:17:02.020Z,91.56
2018-11-28T00:20:10.015Z,91.61
2018-11-28T00:23:14.163Z,91.54
2018-11-28T00:26:18.134Z,91.44
2018-11-28T00:29:22.101Z,91.52
2018-11-28T00:32:26.084Z,91.56
2018-11-28T00:35:30.062Z,91.99
2018-11-28T00:38:34.046Z,91.23
2018-11-28T00:41:38.011Z,90.68
2018-11-28T00:44:41.987Z,91.06
2018-11-28T00:47:46.321Z,91.25
2018-11-28T00:50:50.287Z,91.35
2018-11-28T00:53:54.599Z,91.22
2018-11-28T00:56:58.571Z,91.20
2018-11-28T01:00:02.531Z,91.22
2018-11-28T01:03:06.501Z,90.99
2018-11-28T01:06:10.483Z,90.75
2018-11-28T01:09:14.453Z,90.73
2018-11-28T01:12:18.617Z,90.81
2018-11-28T01:15:22.938Z,91.07
2018-11-28T01:18:26.923Z,90.84
2018-11-28T01:21:31.071Z,90.93
2018-11-28T01:24:35.043Z,90.89
2018-11-28T01:27:39.027Z,91.03
2018-11-28T01:30:43.002Z,91.35
2018-11-28T01:33:46.971Z,90.90
2018-11-28T01:36:50.946Z,91.00
2018-11-28T01:39:54.936Z,91.12
2018-11-28T01:42:59.094Z,90.90
2018-11-28T01:46:03.066Z,90.96
2018-11-28T01:49:07.055Z,91.22
2018-11-28T01:52:11.040Z,91.30
2018-11-28T01:55:16.622Z,91.09
2018-11-28T01:58:20.585Z,90.72
2018-11-28T02:01:24.566Z,91.37
2018-11-28T02:04:29.042Z,91.25
2018-11-28T02:07:33.022Z,91.08
2018-11-28T02:10:37.006Z,90.80
2018-11-28T02:13:41.005Z,90.53
2018-11-28T02:16:44.978Z,90.74
2018-11-28T02:19:48.958Z,91.24
2018-11-28T02:22:52.945Z,91.15
2018-11-28T02:25:57.259Z,91.03
2018-11-28T02:29:01.252Z,91.21
2018-11-28T02:32:05.268Z,91.39
2018-11-28T02:35:10.568Z,91.20
2018-11-28T02:38:14.547Z,91.37
2018-11-28T02:41:18.529Z,91.16
2018-11-28T02:44:22.498Z,90.83
2018-11-28T02:47:26.688Z,90.85
2018-11-28T02:50:30.676Z,90.85
2018-11-28T02:53:35.356Z,90.57
2018-11-28T02:56:39.521Z,90.64
2018-11-28T02:59:43.683Z,90.98
2018-11-28T03:02:47.694Z,90.68
2018-11-28T03:05:51.653Z,90.87
2018-11-28T03:08:55.820Z,90.79
2018-11-28T03:11:59.970Z,90.36
2018-11-28T03:15:04.246Z,90.61
2018-11-28T03:18:08.690Z,90.80
2018-11-28T03:21:12.683Z,90.86
2018-11-28T03:24:16.691Z,90.73
2018-11-28T03:27:20.847Z,90.54
2018-11-28T03:30:32.691Z,90.78
2018-11-28T03:33:36.660Z,90.69
2018-11-28T03:36:40.831Z,90.87
2018-11-28T03:39:44.807Z,90.83
2018-11-28T03:42:48.784Z,90.41
2018-11-28T03:45:52.934Z,90.61
2018-11-28T03:48:56.906Z,90.78
2018-11-28T03:52:00.891Z,90.97
2018-11-28T03:55:06.819Z,90.29
2018-11-28T03:58:11.022Z,90.67
2018-11-28T04:01:15.167Z,90.50
2018-11-28T04:04:19.318Z,90.69
2018-11-28T04:07:23.298Z,90.17
2018-11-28T04:10:27.294Z,90.50
2018-11-28T04:13:31.441Z,90.28
2018-11-28T04:16:35.433Z,90.80
2018-11-28T04:19:39.586Z,90.08
2018-11-28T04:22:43.575Z,90.32
2018-11-28T04:25:47.560Z,90.54
2018-11-28T04:28:51.522Z,90.13
2018-11-28T04:31:57.085Z,90.14
2018-11-28T04:35:01.072Z,90.19
2018-11-28T04:38:05.235Z,89.80
2018-11-28T04:41:09.400Z,89.99
2018-11-28T04:44:13.367Z,90.22
2018-11-28T04:47:17.338Z,90.07
2018-11-28T04:50:21.487Z,90.22
2018-11-28T04:53:25.451Z,90.07
2018-11-28T04:56:29.620Z,90.33
2018-11-28T04:59:33.587Z,90.09
2018-11-28T05:02:37.559Z,89.98
2018-11-28T05:05:41.542Z,90.15
2018-11-28T05:08:45.670Z,90.18
2018-11-28T05:11:49.675Z,90.10
2018-11-28T05:14:53.638Z,90.48
2018-11-28T05:17:57.630Z,89.45
2018-11-28T05:21:01.792Z,90.19
2018-11-28T05:24:05.763Z,90.12
2018-11-28T05:27:09.748Z,89.93
2018-11-28T05:30:15.571Z,90.03
2018-11-28T05:33:19.735Z,89.72
2018-11-28T05:36:23.738Z,90.06
2018-11-28T05:39:27.715Z,89.90
2018-11-28T05:42:31.686Z,89.72
2018-11-28T05:45:35.677Z,89.72
2018-11-28T05:48:39.650Z,89.71
2018-11-28T05:51:43.622Z,89.57
2018-11-28T05:54:47.625Z,89.92
2018-11-28T05:57:51.596Z,89.01
2018-11-28T06:00:55.751Z,89.52
2018-11-28T06:03:59.725Z,89.71
2018-11-28T06:07:03.715Z,89.85
2018-11-28T06:10:08.330Z,89.53
2018-11-28T06:13:12.319Z,89.50
2018-11-28T06:16:16.626Z,89.47
2018-11-28T06:19:20.630Z,89.04
2018-11-28T06:22:25.016Z,89.14
2018-11-28T06:25:29.001Z,89.38
2018-11-28T06:28:32.978Z,89.58
2018-11-28T06:31:36.967Z,89.28
2018-11-28T06:34:40.938Z,90.03
2018-11-28T06:37:44.922Z,89.72
2018-11-28T06:40:48.890Z,89.66
2018-11-28T06:43:52.859Z,89.47
2018-11-28T06:46:57.002Z,89.69
2018-11-28T06:50:00.984Z,89.31
2018-11-28T06:53:05.370Z,89.16
2018-11-28T06:56:09.333Z,89.57
2018-11-28T06:59:13.478Z,89.31
2018-11-28T07:02:17.442Z,89.69
2018-11-28T07:05:22.168Z,89.02
2018-11-28T07:08:26.126Z,89.55
2018-11-28T07:11:30.098Z,89.32
2018-11-28T07:14:34.249Z,88.97
2018-11-28T07:17:38.435Z,88.92
2018-11-28T07:20:42.386Z,89.38
2018-11-28T07:23:46.540Z,89.01
2018-11-28T07:26:50.683Z,89.31
2018-11-28T07:29:54.642Z,89.11
2018-11-28T07:32:58.698Z,89.13
2018-11-28T07:36:02.671Z,89.15
2018-11-28T07:39:06.868Z,89.07
2018-11-28T07:42:11.010Z,88.94
2018-11-28T07:45:15.318Z,89.61
2018-11-28T07:48:19.266Z,89.26
2018-11-28T07:51:23.222Z,89.33
2018-11-28T07:54:27.188Z,89.32
2018-11-28T07:57:31.330Z,89.38
2018-11-28T08:00:36.183Z,89.29
2018-11-28T08:03:40.146Z,89.13
2018-11-28T08:06:44.098Z,89.09
2018-11-28T08:09:48.050Z,88.32
2018-11-28T08:12:55.211Z,88.44
2018-11-28T08:15:59.594Z,88.29
2018-11-28T08:19:03.557Z,88.58
2018-11-28T08:22:07.851Z,88.51
2018-11-28T08:25:13.825Z,88.68
2018-11-28T08:28:17.802Z,88.64
2018-11-28T08:31:22.114Z,88.33
2018-11-28T08:34:26.085Z,88.13
2018-11-28T08:37:30.055Z,88.22
2018-11-28T08:40:34.194Z,88.72
2018-11-28T08:43:38.163Z,88.35
2018-11-28T08:46:42.123Z,88.25
2018-11-28T08:49:46.078Z,88.44
2018-11-28T08:52:50.038Z,87.77
2018-11-28T08:55:53.994Z,88.18
2018-11-28T08:58:57.964Z,88.04
2018-11-28T09:02:01.921Z,87.75
2018-11-28T09:05:06.221Z,87.19
2018-11-28T09:08:10.186Z,87.48
2018-11-28T09:11:14.165Z,87.71
2018-11-28T09:14:18.112Z,87.13
2018-11-28T09:17:22.277Z,86.88
2018-11-28T09:20:26.565Z,87.25
2018-11-28T09:23:30.854Z,87.49
2018-11-28T09:26:34.826Z,87.10
2018-11-28T09:29:38.799Z,85.88
2018-11-28T09:32:43.014Z,86.48
2018-11-28T09:35:46.991Z,86.53
2018-11-28T09:38:50.954Z,87.29
2018-11-28T09:41:54.922Z,86.89
2018-11-28T09:44:58.885Z,87.59
2018-11-28T09:48:03.187Z,87.19
2018-11-28T09:51:07.950Z,86.61
2018-11-28T09:54:11.918Z,87.09
2018-11-28T09:57:15.878Z,85.43
2018-11-28T10:00:21.615Z,85.26
2018-11-28T10:03:25.574Z,84.39
2018-11-28T10:06:29.533Z,85.71
2018-11-28T10:09:33.496Z,85.07
2018-11-28T10:12:37.776Z,85.47
2018-11-28T10:15:41.721Z,85.65
2018-11-28T10:18:45.695Z,86.07
2018-11-28T10:21:49.655Z,86.41
2018-11-28T10:24:53.805Z,85.98
2018-11-28T10:28:03.218Z,86.17
2018-11-28T10:31:07.211Z,85.79
2018-11-28T10:34:11.192Z,86.63
2018-11-28T10:37:15.586Z,86.47
2018-11-28T10:40:20.960Z,86.45
2018-11-28T10:43:25.246Z,86.54
2018-11-28T10:46:29.200Z,86.67
2018-11-28T10:49:33.336Z,86.14
2018-11-28T10:52:37.365Z,84.87
2018-11-28T10:55:41.662Z,85.28
2018-11-28T10:58:45.631Z,85.86
2018-11-28T11:01:51.759Z,85.47
2018-11-28T11:05:01.117Z,85.35
2018-11-28T11:08:10.534Z,84.48
2018-11-28T11:11:20.006Z,84.11
2018-11-28T11:14:29.467Z,84.75
2018-11-28T11:17:33.426Z,85.08
2018-11-28T11:20:37.626Z,84.54
2018-11-28T11:23:41.618Z,84.87
2018-11-28T11:26:45.574Z,85.11
2018-11-28T11:29:49.538Z,84.79
2018-11-28T11:32:53.507Z,84.48
2018-11-28T11:35:57.453Z,83.64
2018-11-28T11:39:01.414Z,84.43
2018-11-28T11:42:06.008Z,84.58
2018-11-28T11:45:11.570Z,83.64
2018-11-28T11:48:15.508Z,84.89
2018-11-28T11:51:19.643Z,83.65
2018-11-28T11:54:23.593Z,84.82
2018-11-28T11:57:27.586Z,85.14
2018-11-28T12:00:32.071Z,84.94
2018-11-28T12:03:36.208Z,84.56
2018-11-28T12:06:40.167Z,84.65
2018-11-28T12:09:44.124Z,84.80
2018-11-28T12:12:51.715Z,84.74
2018-11-28T12:15:58.763Z,84.00
2018-11-28T12:19:03.229Z,83.95
2018-11-28T12:22:07.594Z,84.26
2018-11-28T12:25:12.322Z,83.63
2018-11-28T12:28:16.281Z,82.81
2018-11-28T12:31:20.247Z,83.61
2018-11-28T12:34:24.211Z,83.86
2018-11-28T12:37:28.193Z,84.58
2018-11-28T12:40:37.003Z,84.76
2018-11-28T12:43:41.290Z,84.75
2018-11-28T12:46:45.255Z,84.47
2018-11-28T12:49:49.227Z,85.51
2018-11-28T12:52:54.629Z,85.45
2018-11-28T12:56:05.795Z,84.50
2018-11-28T12:59:09.758Z,84.35
2018-11-28T13:02:13.710Z,84.66
2018-11-28T13:05:20.721Z,84.92
2018-11-28T13:08:24.692Z,84.69
2018-11-28T13:11:28.659Z,85.11
2018-11-28T13:14:32.627Z,84.95
2018-11-28T13:17:36.610Z,84.71
2018-11-28T13:20:41.926Z,85.09
2018-11-28T13:23:45.887Z,84.46
2018-11-28T13:26:50.031Z,84.98
2018-11-28T13:29:53.998Z,84.90
2018-11-28T13:32:57.964Z,85.11
2018-11-28T13:36:01.950Z,85.10
2018-11-28T13:39:06.842Z,84.89
2018-11-28T13:42:10.992Z,83.94
2018-11-28T13:45:18.941Z,83.87
2018-11-28T13:48:22.913Z,84.53
2018-11-28T13:51:26.878Z,84.04
2018-11-28T13:54:30.834Z,84.04
2018-11-28T13:57:34.807Z,84.24
2018-11-28T14:00:38.954Z,84.60
2018-11-28T14:03:42.930Z,84.13
2018-11-28T14:06:46.902Z,84.30
2018-11-28T14:09:50.889Z,84.34
2018-11-28T14:12:55.202Z,84.39
2018-11-28T14:15:59.170Z,84.81
2018-11-28T14:19:03.148Z,84.69
2018-11-28T14:22:07.441Z,84.71
2018-11-28T14:25:12.883Z,83.96
2018-11-28T14:28:17.205Z,83.31
2018-11-28T14:31:21.167Z,83.54
2018-11-28T14:34:25.477Z,84.08
2018-11-28T14:37:29.443Z,83.73
2018-11-28T14:40:34.095Z,84.46
2018-11-28T14:43:38.066Z,84.83
2018-11-28T14:46:42.029Z,84.55
2018-11-28T14:49:45.999Z,84.77
2018-11-28T14:52:50.046Z,84.76
2018-11-28T14:55:54.019Z,84.71
2018-11-28T14:58:57.990Z,84.85
2018-11-28T15:02:02.282Z,84.89
2018-11-28T15:05:12.270Z,84.51
2018-11-28T15:08:17.889Z,84.42
2018-11-28T15:11:21.858Z,85.10
2018-11-28T15:14:25.885Z,84.32
2018-11-28T15:17:29.800Z,84.88
2018-11-28T15:20:33.946Z,83.86
2018-11-28T15:23:38.385Z,84.52
2018-11-28T15:26:42.354Z,83.31
2018-11-28T15:29:46.333Z,83.93
2018-11-28T15:32:50.306Z,84.17
2018-11-28T15:35:54.300Z,84.41
2018-11-28T15:38:58.448Z,84.61
2018-11-28T15:42:02.411Z,84.48
2018-11-28T15:45:08.123Z,84.60
2018-11-28T15:48:12.236Z,84.84
2018-11-28T15:51:16.207Z,85.02
2018-11-28T15:54:20.173Z,84.30
2018-11-28T15:57:24.330Z,84.26
2018-11-28T16:00:28.285Z,84.37
2018-11-28T16:03:32.923Z,85.17
2018-11-28T16:06:36.883Z,85.10
2018-11-28T16:09:46.115Z,84.86
2018-11-28T16:12:50.763Z,84.66
2018-11-28T16:15:56.047Z,85.31
2018-11-28T16:19:00.012Z,84.77
2018-11-28T16:22:04.547Z,84.93
2018-11-28T16:25:10.282Z,85.31
2018-11-28T16:28:14.262Z,85.03
2018-11-28T16:31:18.414Z,85.30
2018-11-28T16:34:22.715Z,84.41
2018-11-28T16:37:27.050Z,84.76
2018-11-28T16:40:31.367Z,84.50
2018-11-28T16:43:35.327Z,85.08
2018-11-28T16:46:39.309Z,84.51
2018-11-28T16:49:43.265Z,84.73
2018-11-28T16:52:47.828Z,84.55
2018-11-28T16:55:51.792Z,84.38
2018-11-28T16:58:55.929Z,84.47
2018-11-28T17:01:59.910Z,84.52
2018-11-28T17:05:04.495Z,84.67
2018-11-28T17:08:09.521Z,84.77
2018-11-28T17:11:13.663Z,85.34
2018-11-28T17:14:17.634Z,85.02
2018-11-28T17:17:21.610Z,85.00
2018-11-28T17:20:26.826Z,84.84
2018-11-28T17:23:30.794Z,84.92
2018-11-28T17:26:34.758Z,84.67
2018-11-28T17:29:38.730Z,85.06
2018-11-28T17:32:42.726Z,85.41
2018-11-28T17:35:46.663Z,84.20
2018-11-28T17:38:50.631Z,84.45
2018-11-28T17:41:54.786Z,84.32
2018-11-28T17:44:58.758Z,83.79
2018-11-28T17:48:03.066Z,84.27
2018-11-28T17:51:07.031Z,84.74
2018-11-28T17:54:11.006Z,84.22
2018-11-28T17:57:15.141Z,84.70
2018-11-28T18:00:20.306Z,84.45
2018-11-28T18:03:24.439Z,84.55
2018-11-28T18:06:28.402Z,83.83
2018-11-28T18:09:32.358Z,84.15
2018-11-28T18:12:36.319Z,83.69
2018-11-28T18:15:48.158Z,84.03
2018-11-28T18:18:52.126Z,83.99
2018-11-28T18:21:56.152Z,83.22
2018-11-28T18:25:00.387Z,83.81
2018-11-28T18:28:04.689Z,84.05
2018-11-28T18:31:08.477Z,83.74
2018-11-28T18:34:12.446Z,83.86
2018-11-28T18:37:16.430Z,83.99
2018-11-28T18:40:20.401Z,84.23
2018-11-28T18:43:24.535Z,83.73
2018-11-28T18:46:28.532Z,84.43
2018-11-28T18:49:32.685Z,84.06
2018-11-28T18:52:36.687Z,83.86
2018-11-28T18:55:40.658Z,84.49
2018-11-28T18:58:44.613Z,83.85
2018-11-28T19:01:50.290Z,83.93
2018-11-28T19:04:54.602Z,84.48
2018-11-28T19:07:58.562Z,84.38
2018-11-28T19:11:03.115Z,84.28
2018-11-28T19:14:12.199Z,84.59
2018-11-28T19:17:11.350Z,84.20
2018-11-28T19:20:16.441Z,84.08
2018-11-28T19:23:20.399Z,84.16
2018-11-28T19:26:24.396Z,84.03
2018-11-28T19:29:28.373Z,84.23
2018-11-28T19:32:32.655Z,83.91
2018-11-28T19:35:36.657Z,84.10
2018-11-28T19:38:40.610Z,84.49
2018-11-28T19:41:44.570Z,84.01
2018-11-28T19:44:48.531Z,84.28
2018-11-28T19:47:52.491Z,84.52
2018-11-28T19:50:56.626Z,84.73
2018-11-28T19:54:00.592Z,84.07
2018-11-28T19:57:04.558Z,84.38
2018-11-28T20:00:15.241Z,84.57
2018-11-28T20:03:19.198Z,83.96
2018-11-28T20:06:23.474Z,83.35
2018-11-28T20:09:27.434Z,83.56
2018-11-28T20:12:31.393Z,83.70
2018-11-28T20:15:35.346Z,84.14
2018-11-28T20:18:39.648Z,83.87
2018-11-28T20:21:43.607Z,84.07
2018-11-28T20:24:47.570Z,83.88
2018-11-28T20:27:54.121Z,83.95
2018-11-28T20:30:58.094Z,83.28
2018-11-28T20:34:02.398Z,83.52
2018-11-28T20:37:06.359Z,83.91
2018-11-28T20:40:15.213Z,83.70
2018-11-28T20:43:19.354Z,84.20
2018-11-28T20:46:23.408Z,83.95
2018-11-28T20:49:27.647Z,83.35
2018-11-28T20:52:31.604Z,82.86
2018-11-28T20:55:35.791Z,83.74
2018-11-28T20:58:40.102Z,83.92
2018-11-28T21:01:44.077Z,83.70
2018-11-28T21:04:48.031Z,83.99
2018-11-28T21:07:52.166Z,83.60
2018-11-28T21:10:56.132Z,83.84
2018-11-28T21:14:00.105Z,83.78
2018-11-28T21:17:04.070Z,84.14
2018-11-28T21:20:11.607Z,83.83
2018-11-28T21:23:17.048Z,83.80
2018-11-28T21:26:21.018Z,84.13
2018-11-28T21:29:24.971Z,83.92
2018-11-28T21:32:28.962Z,83.66
2018-11-28T21:35:35.248Z,83.01
2018-11-28T21:38:39.227Z,83.26
2018-11-28T21:41:43.198Z,83.24
2018-11-28T21:44:47.193Z,83.21
2018-11-28T21:47:51.197Z,83.62
2018-11-28T21:50:55.153Z,83.33
2018-11-28T21:53:59.108Z,83.83
2018-11-28T21:57:03.071Z,83.57
2018-11-28T22:00:10.791Z,83.38
2018-11-28T22:03:14.952Z,83.60
2018-11-28T22:06:18.909Z,84.05
2018-11-28T22:09:22.879Z,84.12
2018-11-28T22:12:26.841Z,84.29
2018-11-28T22:15:30.800Z,84.34
2018-11-28T22:18:34.759Z,84.10
2018-11-28T22:21:38.725Z,84.26
2018-11-28T22:24:42.678Z,83.61
2018-11-28T22:27:46.978Z,84.40
2018-11-28T22:30:50.952Z,84.08
2018-11-28T22:33:54.917Z,84.54
2018-11-28T22:36:58.907Z,84.55
2018-11-28T22:40:02.918Z,84.64
2018-11-28T22:43:06.883Z,84.75
2018-11-28T22:46:10.830Z,84.82
2018-11-28T22:49:14.803Z,84.89
2018-11-28T22:52:18.758Z,84.33
2018-11-28T22:55:22.729Z,84.55
2018-11-28T22:58:26.695Z,84.44
2018-11-28T23:01:38.875Z,84.33
2018-11-28T23:04:42.834Z,84.08
2018-11-28T23:07:46.794Z,84.55
2018-11-28T23:10:51.758Z,84.33
2018-11-28T23:13:55.718Z,84.20
2018-11-28T23:16:59.670Z,84.06
2018-11-28T23:20:03.882Z,83.81
2018-11-28T23:23:08.479Z,83.79
2018-11-28T23:26:12.441Z,84.40
2018-11-28T23:29:16.578Z,84.07
2018-11-28T23:32:20.543Z,84.64
2018-11-28T23:35:25.332Z,84.41
2018-11-28T23:38:29.294Z,84.61
2018-11-28T23:41:33.266Z,84.39
2018-11-28T23:44:37.238Z,84.47
2018-11-28T23:47:41.209Z,83.98
2018-11-28T23:50:45.358Z,84.42
2018-11-28T23:53:49.321Z,84.44
2018-11-28T23:56:53.291Z,84.28
2018-11-28T23:59:57.505Z,84.53
